Time;durP1;ratioP1;P1;durP2;ratioP2;P2;SDS_P1;SDS_P2;PMS_P1;PMS_P2;Temp;Humidity;BMP_temperature;BMP_pressure;BME280_temperature;BME280_humidity;BME280_pressure;Samples;Min_cycle;Max_cycle;Signal;HPM_P1;HPM_P2
2021/06/19 00:00:41;;;;;;;7.97;2.90;;;27.10;80.20;;;;;;2048535;28;20486;-68
2021/06/19 00:01:41;;;;;;;6.65;2.72;;;27.10;79.00;;;;;;2048389;28;20527;-68
2021/06/19 00:02:42;;;;;;;3.75;3.17;;;27.10;79.80;;;;;;2048884;29;20106;-68
2021/06/19 00:03:42;;;;;;;5.70;2.88;;;27.10;80.10;;;;;;2048753;28;20466;-68
2021/06/19 00:04:43;;;;;;;5.82;3.13;;;27.10;81.00;;;;;;2048674;28;20423;-68
2021/06/19 00:05:44;;;;;;;5.50;2.83;;;27.10;80.60;;;;;;2047682;29;20106;-68
2021/06/19 00:06:44;;;;;;;5.47;3.00;;;27.10;80.90;;;;;;2048141;28;20149;-68
2021/06/19 00:07:45;;;;;;;8.75;3.72;;;27.10;80.40;;;;;;2052051;28;20076;-68
2021/06/19 00:08:45;;;;;;;4.38;3.20;;;27.10;81.10;;;;;;2049891;28;20035;-68
2021/06/19 00:09:46;;;;;;;11.00;3.08;;;27.00;78.30;;;;;;2049206;28;20344;-68
2021/06/19 00:10:47;;;;;;;7.78;2.97;;;27.00;79.10;;;;;;2048749;28;20027;-68
2021/06/19 00:11:49;;;;;;;8.15;3.33;;;27.00;80.40;;;;;;2054020;28;20030;-68
2021/06/19 00:12:52;;;;;;;10.07;3.65;;;27.00;81.70;;;;;;2056450;28;20387;-68
2021/06/19 00:13:52;;;;;;;6.80;3.00;;;27.00;81.20;;;;;;2056922;28;20516;-68
2021/06/19 00:14:53;;;;;;;6.80;2.72;;;27.00;82.30;;;;;;2056314;28;20424;-68
2021/06/19 00:15:54;;;;;;;5.50;2.95;;;27.00;81.10;;;;;;2056810;28;20136;-68
2021/06/19 00:16:54;;;;;;;6.07;2.88;;;27.00;82.70;;;;;;2056698;28;20029;-68
2021/06/19 00:17:55;;;;;;;5.28;2.80;;;27.00;80.30;;;;;;2056753;28;20030;-68
2021/06/19 00:18:55;;;;;;;7.25;2.90;;;26.90;81.40;;;;;;2056651;28;20039;-68
2021/06/19 00:19:56;;;;;;;4.47;2.88;;;26.90;81.80;;;;;;2072137;28;20055;-68
2021/06/19 00:20:57;;;;;;;6.22;2.70;;;26.90;80.30;;;;;;2072121;28;20022;-68
2021/06/19 00:21:57;;;;;;;6.75;2.63;;;26.90;83.10;;;;;;2055945;28;20115;-68
2021/06/19 00:22:58;;;;;;;7.90;3.00;;;26.90;81.60;;;;;;2057036;28;20027;-68
2021/06/19 00:23:59;;;;;;;5.32;2.85;;;26.90;81.40;;;;;;2056527;28;20098;-68
2021/06/19 00:24:59;;;;;;;6.20;3.22;;;26.90;82.30;;;;;;2056580;28;20367;-68
2021/06/19 00:26:00;;;;;;;7.75;2.92;;;26.80;82.60;;;;;;2056428;28;20026;-68
2021/06/19 00:27:10;;;;;;;5.15;2.55;;;26.80;82.70;;;;;;2056507;28;20031;-68
2021/06/19 00:28:17;;;;;;;9.40;2.90;;;26.80;82.50;;;;;;2061585;28;20110;-68
2021/06/19 00:29:20;;;;;;;5.18;2.70;;;26.70;83.30;;;;;;2091682;28;20072;-68
2021/06/19 00:30:22;;;;;;;3.13;2.20;;;26.70;83.70;;;;;;2085928;28;20021;-68
2021/06/19 00:31:25;;;;;;;6.10;2.55;;;26.70;83.50;;;;;;2055316;28;20035;-68
2021/06/19 00:32:26;;;;;;;5.97;2.45;;;26.70;83.70;;;;;;2064091;28;20026;-68
2021/06/19 00:33:27;;;;;;;3.55;2.30;;;26.60;83.60;;;;;;2071939;28;20109;-68
2021/06/19 00:34:27;;;;;;;4.32;2.45;;;26.60;83.40;;;;;;2056861;28;20323;-68
2021/06/19 00:35:28;;;;;;;6.35;2.50;;;26.60;82.90;;;;;;2056801;28;20027;-68
2021/06/19 00:36:28;;;;;;;3.90;1.98;;;26.60;82.90;;;;;;2056377;28;20121;-68
2021/06/19 00:37:29;;;;;;;4.82;1.60;;;26.50;83.80;;;;;;2056293;28;20031;-68
2021/06/19 00:38:29;;;;;;;7.05;2.45;;;26.50;83.80;;;;;;2056427;28;20221;-68
2021/06/19 00:39:30;;;;;;;4.50;2.70;;;26.50;83.80;;;;;;2052461;28;20027;-68
2021/06/19 00:40:31;;;;;;;3.85;2.20;;;26.50;83.90;;;;;;2055887;28;20049;-68
2021/06/19 00:41:34;;;;;;;10.45;2.88;;;26.50;82.70;;;;;;2056126;28;20367;-68
2021/06/19 00:42:35;;;;;;;4.15;2.25;;;26.50;84.50;;;;;;2056378;28;20038;-68
2021/06/19 00:43:36;;;;;;;5.22;2.58;;;26.50;84.00;;;;;;2056566;28;20482;-68
2021/06/19 00:44:37;;;;;;;10.75;2.88;;;26.50;84.10;;;;;;2056454;28;20383;-68
2021/06/19 00:45:38;;;;;;;2.55;2.20;;;26.50;83.30;;;;;;2056819;28;20023;-68
2021/06/19 00:46:39;;;;;;;4.13;2.08;;;26.50;82.20;;;;;;2056531;28;20026;-68
2021/06/19 00:47:39;;;;;;;4.10;2.53;;;26.50;81.40;;;;;;2056423;28;20019;-68
2021/06/19 00:48:40;;;;;;;3.70;1.85;;;26.50;83.20;;;;;;2056540;28;20023;-68
2021/06/19 00:49:41;;;;;;;3.58;2.13;;;26.40;83.20;;;;;;2056689;28;20031;-68
2021/06/19 00:50:42;;;;;;;4.65;2.28;;;26.40;84.50;;;;;;2056241;28;20026;-68
2021/06/19 00:51:44;;;;;;;5.38;2.30;;;26.40;85.30;;;;;;2055982;28;20027;-68
2021/06/19 00:52:45;;;;;;;4.50;1.80;;;26.40;84.40;;;;;;2056254;28;20029;-68
2021/06/19 00:53:45;;;;;;;4.68;2.20;;;26.40;86.20;;;;;;2054640;28;20022;-68
2021/06/19 00:54:46;;;;;;;2.35;2.10;;;26.40;86.20;;;;;;2054666;28;20084;-68
2021/06/19 00:55:47;;;;;;;5.80;2.22;;;26.40;86.10;;;;;;2055397;28;20555;-68
2021/06/19 00:56:48;;;;;;;3.00;2.03;;;26.40;85.30;;;;;;2055204;28;20023;-68
2021/06/19 00:57:50;;;;;;;4.78;2.63;;;26.40;85.60;;;;;;2055360;28;20505;-68
2021/06/19 00:58:51;;;;;;;2.67;2.47;;;26.40;87.50;;;;;;2054981;28;20027;-68
2021/06/19 00:59:51;;;;;;;4.30;2.10;;;26.30;85.60;;;;;;2055270;28;20011;-68
2021/06/19 01:00:52;;;;;;;3.33;2.20;;;26.30;84.30;;;;;;2055471;28;20581;-68
2021/06/19 01:01:54;;;;;;;5.78;2.10;;;26.30;85.40;;;;;;2054472;28;20077;-68
2021/06/19 01:02:56;;;;;;;8.00;2.33;;;26.30;84.40;;;;;;2055094;28;20045;-68
2021/06/19 01:03:56;;;;;;;4.63;2.42;;;26.20;84.80;;;;;;2055037;28;20467;-68
2021/06/19 01:04:57;;;;;;;4.07;2.22;;;26.30;86.60;;;;;;2054974;28;20696;-68
2021/06/19 01:05:57;;;;;;;4.82;2.03;;;26.20;85.80;;;;;;2055355;28;20382;-68
2021/06/19 01:07:01;;;;;;;5.40;1.83;;;26.20;85.90;;;;;;2055008;28;20037;-68
2021/06/19 01:08:02;;;;;;;3.30;1.90;;;26.20;87.50;;;;;;2055415;28;20030;-68
2021/06/19 01:09:05;;;;;;;5.43;1.90;;;26.20;88.20;;;;;;2055103;28;20046;-68
2021/06/19 01:10:07;;;;;;;3.58;2.15;;;26.20;87.80;;;;;;2054982;28;20100;-68
2021/06/19 01:11:08;;;;;;;2.85;1.80;;;26.10;87.80;;;;;;2054946;28;20030;-68
2021/06/19 01:12:09;;;;;;;3.80;1.65;;;26.10;88.30;;;;;;2053724;28;20027;-68
2021/06/19 01:13:09;;;;;;;4.47;2.22;;;26.10;86.60;;;;;;2054512;28;20160;-68
2021/06/19 01:14:10;;;;;;;3.75;1.60;;;26.00;87.40;;;;;;2054976;28;20471;-68
2021/06/19 01:15:11;;;;;;;2.97;1.48;;;26.00;85.90;;;;;;2054922;28;20105;-68
2021/06/19 01:16:11;;;;;;;3.22;1.75;;;26.00;86.50;;;;;;2055191;28;20079;-68
2021/06/19 01:17:14;;;;;;;4.82;1.83;;;26.00;88.10;;;;;;2055028;28;20035;-68
2021/06/19 01:18:14;;;;;;;4.20;1.67;;;25.90;88.00;;;;;;2070237;28;20462;-68
2021/06/19 01:19:16;;;;;;;4.72;2.13;;;25.90;87.10;;;;;;2070392;28;20418;-68
2021/06/19 01:20:19;;;;;;;1.67;1.50;;;25.90;86.70;;;;;;2055438;28;20038;-68
2021/06/19 01:21:22;;;;;;;2.13;1.55;;;25.90;88.00;;;;;;2054930;28;20031;-68
2021/06/19 01:22:40;;;;;;;2.70;1.58;;;25.90;87.90;;;;;;2054909;28;20467;-68
2021/06/19 01:23:41;;;;;;;5.32;1.48;;;25.80;87.50;;;;;;2059910;28;20475;-68
2021/06/19 01:24:42;;;;;;;3.00;1.60;;;25.80;88.20;;;;;;2055310;28;20033;-68
2021/06/19 01:25:42;;;;;;;2.60;1.42;;;25.80;88.50;;;;;;2081421;28;20027;-68
2021/06/19 01:26:44;;;;;;;2.90;1.40;;;25.80;87.70;;;;;;2047931;28;20114;-68
2021/06/19 01:27:48;;;;;;;1.33;1.20;;;25.80;88.50;;;;;;2052923;28;20027;-68
2021/06/19 01:28:50;;;;;;;3.45;1.73;;;25.80;88.00;;;;;;2087208;28;20112;-68
2021/06/19 01:29:51;;;;;;;3.78;1.33;;;25.80;88.30;;;;;;2091763;28;20376;-68
2021/06/19 01:30:52;;;;;;;3.78;1.38;;;25.70;88.50;;;;;;2062864;28;20523;-68
2021/06/19 01:31:53;;;;;;;2.88;1.27;;;25.70;86.80;;;;;;2054412;28;20104;-68
2021/06/19 01:32:55;;;;;;;4.32;1.67;;;25.70;88.80;;;;;;2055034;28;20433;-68
2021/06/19 01:33:55;;;;;;;1.25;1.20;;;25.70;89.50;;;;;;2054827;28;20030;-68
2021/06/19 01:34:56;;;;;;;1.40;1.17;;;25.70;87.60;;;;;;2055316;28;20034;-68
2021/06/19 01:35:56;;;;;;;3.28;1.83;;;25.70;89.20;;;;;;2054908;28;20027;-68
2021/06/19 01:36:57;;;;;;;3.35;1.38;;;25.70;88.40;;;;;;2055241;28;20098;-68
2021/06/19 01:37:58;;;;;;;1.52;0.95;;;25.60;88.30;;;;;;2054864;28;20505;-68
2021/06/19 01:38:59;;;;;;;3.20;1.25;;;25.60;89.20;;;;;;2052056;28;20045;-68
2021/06/19 01:40:12;;;;;;;6.55;1.55;;;25.60;88.80;;;;;;2048887;28;20024;-68
2021/06/19 01:41:15;;;;;;;2.90;1.30;;;25.50;89.10;;;;;;2054893;28;20356;-68
2021/06/19 01:42:15;;;;;;;1.38;1.20;;;25.50;87.90;;;;;;2054294;28;20022;-68
2021/06/19 01:43:16;;;;;;;1.35;1.08;;;25.50;89.10;;;;;;2054784;28;20027;-68
2021/06/19 01:44:16;;;;;;;2.55;1.25;;;25.50;89.30;;;;;;2054663;28;20031;-68
2021/06/19 01:45:23;;;;;;;1.50;1.13;;;25.50;88.50;;;;;;2054686;28;20027;-68
2021/06/19 01:46:24;;;;;;;5.38;1.50;;;25.50;90.00;;;;;;2053231;28;20037;-68
2021/06/19 01:47:27;;;;;;;3.67;1.42;;;25.40;90.20;;;;;;2053632;28;20474;-68
2021/06/19 01:48:27;;;;;;;3.58;1.30;;;25.40;89.80;;;;;;2054886;28;20023;-68
2021/06/19 01:49:35;;;;;;;1.55;1.15;;;25.40;90.00;;;;;;2047187;28;20024;-68
2021/06/19 01:50:37;;;;;;;3.67;1.60;;;25.40;90.40;;;;;;2050473;28;20055;-68
2021/06/19 01:51:37;;;;;;;2.03;1.33;;;25.40;90.20;;;;;;2054331;28;20023;-68
2021/06/19 01:52:39;;;;;;;1.88;1.38;;;25.30;90.00;;;;;;2054175;28;20035;-68
2021/06/19 01:53:44;;;;;;;3.97;1.25;;;25.40;88.90;;;;;;2054820;28;20023;-68
2021/06/19 01:54:44;;;;;;;1.20;1.10;;;25.30;89.20;;;;;;2054729;28;20065;-68
2021/06/19 01:55:45;;;;;;;2.92;1.63;;;25.30;89.00;;;;;;2054771;28;20022;-68
2021/06/19 01:56:46;;;;;;;1.77;1.25;;;25.30;88.00;;;;;;2054934;28;20026;-68
2021/06/19 01:57:50;;;;;;;2.58;1.17;;;25.30;89.60;;;;;;2055256;28;20033;-68
2021/06/19 01:58:52;;;;;;;2.35;1.30;;;25.30;89.10;;;;;;2054929;28;20030;-68
2021/06/19 02:00:11;;;;;;;1.40;1.23;;;25.30;89.50;;;;;;2054963;28;20071;-68
2021/06/19 02:01:12;;;;;;;1.55;1.17;;;25.30;90.40;;;;;;2056091;28;20066;-68
2021/06/19 02:02:13;;;;;;;2.45;1.65;;;25.20;89.90;;;;;;2055652;28;20034;-68
2021/06/19 02:03:13;;;;;;;1.98;1.27;;;25.20;90.40;;;;;;2053679;28;20081;-68
2021/06/19 02:04:20;;;;;;;3.50;1.40;;;25.20;90.50;;;;;;2047388;28;20424;-68
2021/06/19 02:05:22;;;;;;;1.75;1.30;;;25.20;90.40;;;;;;2052898;28;20027;-68
2021/06/19 02:06:22;;;;;;;2.20;1.48;;;25.20;90.70;;;;;;2056338;28;20047;-68
2021/06/19 02:07:23;;;;;;;3.35;1.30;;;25.20;90.90;;;;;;2056088;28;20494;-68
2021/06/19 02:08:24;;;;;;;1.58;1.38;;;25.20;90.80;;;;;;2055457;28;20023;-68
2021/06/19 02:09:24;;;;;;;4.10;1.38;;;25.20;90.80;;;;;;2055188;28;20038;-68
2021/06/19 02:10:31;;;;;;;2.28;1.45;;;25.20;90.90;;;;;;2056276;28;20523;-68
2021/06/19 02:11:32;;;;;;;3.85;1.20;;;25.10;90.70;;;;;;2055084;28;20360;-68
2021/06/19 02:12:32;;;;;;;2.95;1.48;;;25.10;90.70;;;;;;2056279;28;20078;-68
2021/06/19 02:13:37;;;;;;;5.07;1.45;;;25.10;90.40;;;;;;2055855;28;20072;-68
2021/06/19 02:14:38;;;;;;;1.85;1.40;;;25.10;91.30;;;;;;2055907;28;20027;-68
2021/06/19 02:15:41;;;;;;;1.10;1.02;;;25.10;91.10;;;;;;2056061;28;20011;-68
2021/06/19 02:16:43;;;;;;;3.85;1.27;;;25.00;91.60;;;;;;2056066;28;20023;-68
2021/06/19 02:17:44;;;;;;;1.23;1.13;;;25.00;91.60;;;;;;2055470;28;20037;-68
2021/06/19 02:18:44;;;;;;;3.03;1.40;;;25.00;91.60;;;;;;2056166;28;20031;-68
2021/06/19 02:19:45;;;;;;;4.15;1.38;;;25.00;92.30;;;;;;2055598;28;20031;-68
2021/06/19 02:20:48;;;;;;;4.00;1.60;;;25.00;92.00;;;;;;2055940;28;20023;-68
2021/06/19 02:21:48;;;;;;;3.15;1.80;;;25.00;91.00;;;;;;2054980;28;20153;-68
2021/06/19 02:22:50;;;;;;;2.17;1.90;;;25.00;90.30;;;;;;2055518;28;20068;-68
2021/06/19 02:23:51;;;;;;;3.10;1.55;;;25.00;91.10;;;;;;2055814;28;20021;-68
2021/06/19 02:24:52;;;;;;;1.40;1.30;;;24.90;91.30;;;;;;2049887;28;20023;-68
2021/06/19 02:25:53;;;;;;;1.75;1.38;;;24.90;91.90;;;;;;2047855;29;20024;-68
2021/06/19 02:27:07;;;;;;;1.75;1.40;;;24.90;92.50;;;;;;2048234;28;20383;-68
2021/06/19 02:28:10;;;;;;;1.90;1.48;;;24.90;93.10;;;;;;2058990;28;20062;-68
2021/06/19 02:29:10;;;;;;;2.92;1.58;;;24.80;92.50;;;;;;2096450;28;20100;-68
2021/06/19 02:30:12;;;;;;;3.13;1.40;;;24.80;93.30;;;;;;2092365;28;20526;-68
2021/06/19 02:31:13;;;;;;;1.67;1.15;;;24.80;93.10;;;;;;2055657;28;20384;-68
2021/06/19 02:32:14;;;;;;;1.58;1.45;;;24.80;93.80;;;;;;2047231;29;20080;-68
2021/06/19 02:33:15;;;;;;;1.15;1.10;;;24.80;93.50;;;;;;2055536;28;20035;-68
2021/06/19 02:34:16;;;;;;;1.50;1.30;;;24.70;93.70;;;;;;2055714;28;20035;-68
2021/06/19 02:35:18;;;;;;;1.63;1.20;;;24.70;92.30;;;;;;2056026;28;20122;-68
2021/06/19 02:36:19;;;;;;;3.15;1.52;;;24.70;93.00;;;;;;2055833;28;20505;-68
2021/06/19 02:37:20;;;;;;;2.30;1.83;;;24.70;92.40;;;;;;2055822;28;20485;-68
2021/06/19 02:38:22;;;;;;;2.40;1.33;;;24.60;93.00;;;;;;2055938;28;20034;-68
2021/06/19 02:39:22;;;;;;;3.28;1.40;;;24.60;93.60;;;;;;2055254;28;20031;-68
2021/06/19 02:40:23;;;;;;;2.83;1.92;;;24.60;94.20;;;;;;2055040;28;20494;-68
2021/06/19 02:41:24;;;;;;;3.10;1.38;;;24.60;93.90;;;;;;2055693;28;20027;-68
2021/06/19 02:42:24;;;;;;;1.30;1.20;;;24.60;93.50;;;;;;2054932;28;20027;-68
2021/06/19 02:43:25;;;;;;;1.83;1.33;;;24.60;93.60;;;;;;2055360;28;20106;-68
2021/06/19 02:44:25;;;;;;;3.50;1.80;;;24.60;93.90;;;;;;2055440;28;20057;-68
2021/06/19 02:45:26;;;;;;;2.35;1.30;;;24.60;94.10;;;;;;2055306;28;20497;-68
2021/06/19 02:46:27;;;;;;;2.67;1.73;;;24.50;94.50;;;;;;2055878;28;20406;-68
2021/06/19 02:47:27;;;;;;;2.55;1.35;;;24.50;93.60;;;;;;2055710;28;20027;-68
2021/06/19 02:48:28;;;;;;;3.40;2.08;;;24.50;93.50;;;;;;2055773;28;20046;-68
2021/06/19 02:49:30;;;;;;;1.92;1.35;;;24.50;94.50;;;;;;2055840;28;20044;-68
2021/06/19 02:50:33;;;;;;;2.25;1.38;;;24.40;93.80;;;;;;2055575;28;20015;-68
2021/06/19 02:51:34;;;;;;;1.65;1.40;;;24.40;94.10;;;;;;2055406;28;20031;-68
2021/06/19 02:52:43;;;;;;;3.53;1.48;;;24.40;94.40;;;;;;2055610;28;20057;-68
2021/06/19 02:53:44;;;;;;;3.38;1.70;;;24.40;94.00;;;;;;2055945;28;20030;-68
2021/06/19 02:54:44;;;;;;;2.33;1.38;;;24.40;94.70;;;;;;2055460;28;20054;-68
2021/06/19 02:55:45;;;;;;;1.73;1.33;;;24.40;95.10;;;;;;2055787;28;20030;-68
2021/06/19 02:56:45;;;;;;;2.70;1.52;;;24.40;94.80;;;;;;2055572;28;20058;-68
2021/06/19 02:57:46;;;;;;;1.63;1.25;;;24.40;94.00;;;;;;2055892;28;20033;-68
2021/06/19 02:58:47;;;;;;;2.05;1.55;;;24.30;93.60;;;;;;2055550;28;20553;-68
2021/06/19 02:59:47;;;;;;;2.03;1.25;;;24.30;94.50;;;;;;2055415;28;20414;-68
2021/06/19 03:00:50;;;;;;;2.13;1.27;;;24.30;95.30;;;;;;2055562;28;20030;-68
2021/06/19 03:01:50;;;;;;;2.05;1.23;;;24.30;95.60;;;;;;2054448;28;20035;-68
2021/06/19 03:02:51;;;;;;;1.38;1.10;;;24.30;95.90;;;;;;2054849;28;20030;-68
2021/06/19 03:03:52;;;;;;;3.45;1.40;;;24.30;95.90;;;;;;2054714;28;20029;-68
2021/06/19 03:04:52;;;;;;;1.50;1.40;;;24.30;96.20;;;;;;2054401;28;20023;-68
2021/06/19 03:05:53;;;;;;;3.92;1.45;;;24.20;95.00;;;;;;2055026;28;20030;-68
2021/06/19 03:06:54;;;;;;;2.72;1.20;;;24.20;94.30;;;;;;2054548;28;20019;-68
2021/06/19 03:07:56;;;;;;;2.15;1.48;;;24.20;94.10;;;;;;2054643;28;20031;-68
2021/06/19 03:08:56;;;;;;;2.90;1.30;;;24.20;94.00;;;;;;2053902;28;20114;-68
2021/06/19 03:09:57;;;;;;;2.25;1.13;;;24.20;94.50;;;;;;2054395;28;20034;-68
2021/06/19 03:10:57;;;;;;;2.25;1.42;;;24.10;94.80;;;;;;2054334;28;20027;-68
2021/06/19 03:11:58;;;;;;;2.88;1.50;;;24.20;96.00;;;;;;2053639;28;20035;-68
2021/06/19 03:12:59;;;;;;;1.83;1.30;;;24.10;96.40;;;;;;2054545;28;20045;-68
2021/06/19 03:14:00;;;;;;;2.10;1.58;;;24.20;96.90;;;;;;2053936;28;20031;-68
2021/06/19 03:15:00;;;;;;;2.50;1.27;;;24.10;96.90;;;;;;2054534;28;20030;-68
2021/06/19 03:16:02;;;;;;;1.40;1.30;;;24.10;95.40;;;;;;2054322;28;20712;-68
2021/06/19 03:17:02;;;;;;;2.83;1.85;;;24.10;95.40;;;;;;2054128;28;20038;-68
2021/06/19 03:18:03;;;;;;;3.40;1.30;;;24.10;96.20;;;;;;2054254;28;20050;-68
2021/06/19 03:19:08;;;;;;;3.58;1.33;;;24.10;96.50;;;;;;2054415;28;20630;-68
2021/06/19 03:20:11;;;;;;;2.67;1.27;;;24.10;96.70;;;;;;2054089;28;20475;-68
2021/06/19 03:21:12;;;;;;;1.70;1.60;;;24.00;97.30;;;;;;2054255;28;20066;-68
2021/06/19 03:22:12;;;;;;;1.52;1.42;;;24.00;96.10;;;;;;2053805;28;20506;-68
2021/06/19 03:23:13;;;;;;;5.43;1.90;;;24.00;96.60;;;;;;2053768;28;20069;-68
2021/06/19 03:24:13;;;;;;;4.78;1.30;;;24.00;97.40;;;;;;2060678;28;20038;-68
2021/06/19 03:25:20;;;;;;;1.88;1.67;;;24.00;96.70;;;;;;2055679;28;20097;-68
2021/06/19 03:26:20;;;;;;;5.07;1.80;;;24.00;96.50;;;;;;2056788;28;20037;-68
2021/06/19 03:27:21;;;;;;;2.33;1.27;;;24.00;97.30;;;;;;2054316;28;20034;-68
2021/06/19 03:28:21;;;;;;;1.95;1.15;;;24.00;97.70;;;;;;2066647;28;20486;-68
2021/06/19 03:29:22;;;;;;;2.47;1.85;;;24.00;97.00;;;;;;2090886;28;20470;-68
2021/06/19 03:30:23;;;;;;;3.67;1.40;;;24.00;97.60;;;;;;2082543;28;20211;-68
2021/06/19 03:31:26;;;;;;;3.90;1.65;;;24.00;97.90;;;;;;2053481;28;20462;-68
2021/06/19 03:32:26;;;;;;;3.20;1.60;;;23.90;98.20;;;;;;2054009;28;20556;-68
2021/06/19 03:33:27;;;;;;;1.98;1.20;;;23.90;98.20;;;;;;2057550;28;20378;-68
2021/06/19 03:34:30;;;;;;;3.83;1.10;;;23.90;97.70;;;;;;2059567;28;20074;-68
2021/06/19 03:35:31;;;;;;;3.20;1.20;;;23.90;98.10;;;;;;2061755;28;20018;-68
2021/06/19 03:36:32;;;;;;;2.08;1.20;;;23.90;97.60;;;;;;2054406;28;20042;-68
2021/06/19 03:37:33;;;;;;;2.40;1.45;;;23.90;97.50;;;;;;2054158;28;20033;-68
2021/06/19 03:38:34;;;;;;;1.40;1.30;;;23.90;98.20;;;;;;2054262;28;20109;-68
2021/06/19 03:39:35;;;;;;;2.75;1.50;;;23.90;97.50;;;;;;2054223;28;20035;-68
2021/06/19 03:40:36;;;;;;;1.73;1.08;;;23.90;98.40;;;;;;2054224;28;20030;-68
2021/06/19 03:41:37;;;;;;;2.92;1.55;;;23.90;98.40;;;;;;2053824;28;20026;-68
2021/06/19 03:42:39;;;;;;;4.75;1.45;;;23.90;98.60;;;;;;2054063;28;20110;-68
2021/06/19 03:43:39;;;;;;;2.70;1.15;;;23.90;98.70;;;;;;2054390;28;20027;-68
2021/06/19 03:44:40;;;;;;;1.48;1.10;;;23.80;98.70;;;;;;2053850;28;20019;-68
2021/06/19 03:45:41;;;;;;;2.33;1.10;;;23.80;98.90;;;;;;2054266;28;20038;-68
2021/06/19 03:46:41;;;;;;;4.70;1.40;;;23.80;98.60;;;;;;2054255;28;20470;-68
2021/06/19 03:47:43;;;;;;;1.45;1.05;;;23.80;98.80;;;;;;2054341;28;20027;-68
2021/06/19 03:48:43;;;;;;;3.28;1.25;;;23.80;98.50;;;;;;2054341;28;20019;-68
2021/06/19 03:49:44;;;;;;;1.17;1.10;;;23.80;97.70;;;;;;2054112;28;20033;-68
2021/06/19 03:50:44;;;;;;;3.13;1.23;;;23.80;98.50;;;;;;2053996;28;20466;-68
2021/06/19 03:51:46;;;;;;;2.83;1.30;;;23.80;99.00;;;;;;2054047;28;20101;-68
2021/06/19 03:52:47;;;;;;;3.53;1.30;;;23.80;99.10;;;;;;2054424;28;20046;-68
2021/06/19 03:53:47;;;;;;;1.77;0.95;;;23.80;99.20;;;;;;2054334;28;20023;-68
2021/06/19 03:54:48;;;;;;;1.20;1.10;;;23.80;99.10;;;;;;2054363;28;20099;-68
2021/06/19 03:55:49;;;;;;;7.03;1.17;;;23.80;99.10;;;;;;2054266;28;20113;-68
2021/06/19 03:56:49;;;;;;;1.38;1.00;;;23.90;99.20;;;;;;2051023;28;20348;-68
2021/06/19 03:57:50;;;;;;;1.98;1.33;;;23.90;99.40;;;;;;2046098;29;20038;-68
2021/06/19 03:58:51;;;;;;;1.40;1.30;;;23.90;99.40;;;;;;2046401;28;20041;-68
2021/06/19 03:59:52;;;;;;;3.75;1.10;;;23.90;99.30;;;;;;2046398;28;20034;-68
2021/06/19 04:00:53;;;;;;;1.42;1.27;;;23.90;99.50;;;;;;2046251;28;20053;-68
2021/06/19 04:01:53;;;;;;;3.08;1.33;;;24.00;99.60;;;;;;2045573;29;20042;-68
2021/06/19 04:02:54;;;;;;;3.95;1.10;;;24.00;98.80;;;;;;2046383;28;20496;-68
2021/06/19 04:03:55;;;;;;;2.15;1.25;;;24.00;99.10;;;;;;2046105;28;20027;-68
2021/06/19 04:04:56;;;;;;;2.05;1.17;;;24.10;99.00;;;;;;2045861;29;20035;-68
2021/06/19 04:05:56;;;;;;;2.90;1.15;;;24.20;98.80;;;;;;2046163;29;20103;-68
2021/06/19 04:06:57;;;;;;;1.60;0.90;;;24.20;98.80;;;;;;2046243;29;20417;-68
2021/06/19 04:07:57;;;;;;;2.47;1.20;;;24.30;98.80;;;;;;2045995;29;20032;-68
2021/06/19 04:08:58;;;;;;;1.75;0.80;;;24.30;98.50;;;;;;2046344;29;20027;-68
2021/06/19 04:09:59;;;;;;;3.55;1.27;;;24.40;98.50;;;;;;2046127;28;20084;-68
2021/06/19 04:10:59;;;;;;;2.67;1.45;;;24.40;97.80;;;;;;2051129;28;20038;-68
2021/06/19 04:12:00;;;;;;;0.93;0.93;;;24.50;97.60;;;;;;2061152;28;20485;-68
2021/06/19 04:13:00;;;;;;;2.60;1.17;;;24.60;97.70;;;;;;2053778;28;20905;-68
2021/06/19 04:14:01;;;;;;;1.13;0.90;;;24.70;97.50;;;;;;2046050;29;20047;-68
2021/06/19 04:15:03;;;;;;;3.38;1.10;;;24.80;97.00;;;;;;2046046;29;20046;-68
2021/06/19 04:16:04;;;;;;;2.63;1.13;;;25.00;96.30;;;;;;2045902;28;20390;-68
2021/06/19 04:17:07;;;;;;;3.00;1.20;;;25.10;96.00;;;;;;2052505;28;20039;-68
2021/06/19 04:18:08;;;;;;;2.72;1.30;;;25.30;95.10;;;;;;2054231;28;20042;-68
2021/06/19 04:19:08;;;;;;;1.60;1.20;;;25.50;94.90;;;;;;2054046;28;20035;-68
2021/06/19 04:20:11;;;;;;;5.60;1.40;;;25.70;94.00;;;;;;2053840;28;20050;-68
2021/06/19 04:21:11;;;;;;;1.42;1.27;;;26.00;93.10;;;;;;2053894;28;20027;-68
2021/06/19 04:22:13;;;;;;;1.30;1.00;;;26.30;92.30;;;;;;2053340;28;20034;-68
2021/06/19 04:23:14;;;;;;;2.47;1.00;;;26.60;91.90;;;;;;2054301;28;20023;-68
2021/06/19 04:24:14;;;;;;;2.78;0.95;;;26.80;90.30;;;;;;2054086;28;20109;-68
2021/06/19 04:25:17;;;;;;;2.42;1.08;;;27.00;87.40;;;;;;2053803;28;20463;-68
2021/06/19 04:26:17;;;;;;;2.72;1.02;;;27.20;86.20;;;;;;2048508;28;20032;-68
2021/06/19 04:27:20;;;;;;;2.78;1.00;;;27.40;85.30;;;;;;2048101;28;20034;-68
2021/06/19 04:28:20;;;;;;;1.20;1.10;;;27.50;84.00;;;;;;2066088;28;20038;-68
2021/06/19 04:29:21;;;;;;;3.55;0.95;;;27.50;83.50;;;;;;2089186;28;20461;-68
2021/06/19 04:30:23;;;;;;;2.85;1.13;;;27.40;83.40;;;;;;2084604;28;20017;-68
2021/06/19 04:31:24;;;;;;;2.58;1.00;;;27.50;83.90;;;;;;2054880;28;20034;-68
2021/06/19 04:32:24;;;;;;;1.30;1.08;;;27.40;83.20;;;;;;2054996;28;20055;-68
2021/06/19 04:33:28;;;;;;;2.92;0.90;;;27.50;83.60;;;;;;2055556;28;20030;-68
2021/06/19 04:34:29;;;;;;;1.92;0.90;;;27.40;83.10;;;;;;2055069;28;20029;-68
2021/06/19 04:35:29;;;;;;;2.28;0.90;;;27.40;83.30;;;;;;2055328;28;20490;-68
2021/06/19 04:36:30;;;;;;;1.50;0.73;;;27.40;83.60;;;;;;2055434;28;20034;-68
2021/06/19 04:37:30;;;;;;;1.33;0.82;;;27.40;83.90;;;;;;2055642;28;20475;-68
2021/06/19 04:38:31;;;;;;;2.08;0.88;;;27.40;84.10;;;;;;2055356;28;20112;-69
2021/06/19 04:39:31;;;;;;;2.03;1.00;;;27.40;83.40;;;;;;2055028;28;20105;-68
2021/06/19 04:40:37;;;;;;;2.00;0.98;;;27.40;82.90;;;;;;2055306;28;20047;-68
2021/06/19 04:41:49;;;;;;;1.40;0.88;;;27.50;83.20;;;;;;2055017;28;20023;-69
2021/06/19 04:42:57;;;;;;;2.35;0.98;;;27.50;82.80;;;;;;2055007;28;20058;-68
2021/06/19 04:45:04;;;;;;;2.47;1.02;;;27.60;83.30;;;;;;2055385;28;20528;-68
2021/06/19 04:46:05;;;;;;;2.75;0.75;;;27.60;83.70;;;;;;2055349;28;20034;-69
2021/06/19 04:47:05;;;;;;;1.25;0.85;;;27.70;83.10;;;;;;2055273;28;20034;-68
2021/06/19 04:48:08;;;;;;;1.90;0.75;;;27.70;81.30;;;;;;2055555;28;20356;-69
2021/06/19 04:49:08;;;;;;;1.00;0.90;;;27.70;80.50;;;;;;2054718;28;20115;-68
2021/06/19 04:50:10;;;;;;;4.68;1.00;;;27.80;81.00;;;;;;2055565;28;20042;-68
2021/06/19 04:51:12;;;;;;;0.93;0.88;;;27.80;80.40;;;;;;2055139;28;20053;-68
2021/06/19 04:52:13;;;;;;;2.65;0.93;;;27.80;80.00;;;;;;2054778;28;20035;-68
2021/06/19 04:53:15;;;;;;;3.67;1.15;;;27.90;80.70;;;;;;2055191;28;20035;-68
2021/06/19 04:54:16;;;;;;;3.60;0.73;;;27.90;79.70;;;;;;2055395;28;20026;-68
2021/06/19 04:55:18;;;;;;;3.92;1.42;;;27.90;79.60;;;;;;2054854;28;20050;-68
2021/06/19 04:56:19;;;;;;;1.30;0.70;;;28.00;79.20;;;;;;2055452;28;20034;-68
2021/06/19 04:57:22;;;;;;;4.88;1.08;;;28.00;78.60;;;;;;2055041;28;20102;-69
2021/06/19 04:58:24;;;;;;;3.42;0.85;;;28.00;77.70;;;;;;2055153;28;20390;-69
2021/06/19 04:59:24;;;;;;;5.28;0.70;;;28.00;77.50;;;;;;2055206;28;20442;-68
2021/06/19 05:00:26;;;;;;;0.82;0.68;;;28.00;77.40;;;;;;2055337;28;20023;-68
2021/06/19 05:01:28;;;;;;;1.60;0.70;;;28.00;76.90;;;;;;2054658;28;20141;-68
2021/06/19 05:02:28;;;;;;;0.98;0.80;;;28.00;77.10;;;;;;2055469;28;20073;-68
2021/06/19 05:03:29;;;;;;;1.00;0.73;;;28.10;76.30;;;;;;2055087;28;20072;-69
2021/06/19 05:04:30;;;;;;;12.50;0.90;;;28.10;76.70;;;;;;2054954;28;20570;-68
2021/06/19 05:05:31;;;;;;;1.70;1.02;;;28.10;76.70;;;;;;2055350;28;20027;-69
2021/06/19 05:06:34;;;;;;;2.95;1.10;;;28.20;76.40;;;;;;2054882;28;20473;-69
2021/06/19 05:07:35;;;;;;;0.70;0.60;;;28.20;75.50;;;;;;2055110;28;20033;-68
2021/06/19 05:08:36;;;;;;;0.98;0.70;;;28.30;76.40;;;;;;2055162;28;20030;-68
2021/06/19 05:09:36;;;;;;;2.05;0.60;;;28.40;76.50;;;;;;2055286;28;20110;-68
2021/06/19 05:10:37;;;;;;;0.70;0.50;;;28.40;75.30;;;;;;2054944;28;20030;-68
2021/06/19 05:11:37;;;;;;;2.00;0.80;;;28.50;75.40;;;;;;2054860;28;20018;-68
2021/06/19 05:12:42;;;;;;;1.15;0.65;;;28.50;75.20;;;;;;2055211;28;20035;-69
2021/06/19 05:13:43;;;;;;;1.13;0.98;;;28.50;74.40;;;;;;2047583;28;20061;-69
2021/06/19 05:14:44;;;;;;;1.88;0.60;;;28.60;74.80;;;;;;2050154;28;20023;-68
2021/06/19 05:15:44;;;;;;;1.30;0.68;;;28.60;74.60;;;;;;2055033;28;20034;-68
2021/06/19 05:16:45;;;;;;;2.17;0.43;;;28.70;73.80;;;;;;2055003;28;20438;-69
2021/06/19 05:17:46;;;;;;;1.35;0.77;;;28.70;73.60;;;;;;2055197;28;20363;-68
2021/06/19 05:18:46;;;;;;;2.67;0.65;;;28.80;74.00;;;;;;2055016;28;20031;-68
2021/06/19 05:19:47;;;;;;;5.15;1.00;;;28.80;73.30;;;;;;2055332;28;20054;-69
2021/06/19 05:20:48;;;;;;;2.55;1.00;;;28.90;72.40;;;;;;2055244;28;20064;-69